Time;durP1;ratioP1;P1;durP2;ratioP2;P2;SDS_P1;SDS_P2;PMS_P1;PMS_P2;Temp;Humidity;BMP_temperature;BMP_pressure;BME280_temperature;BME280_humidity;BME280_pressure;Samples;Min_cycle;Max_cycle;Signal;HPM_P1;HPM_P2
2022/03/05 00:00:06;;;;;;;46.88;12.43;;;;;;;;;;6264555;28;20579;-80
2022/03/05 00:03:14;;;;;;;38.40;13.13;;;;;;;;;;6231968;28;20105;-80
2022/03/05 00:06:16;;;;;;;43.60;13.90;;;;;;;;;;6223354;28;20047;-82
2022/03/05 00:09:19;;;;;;;42.50;13.60;;;;;;;;;;6236410;28;20092;-81
2022/03/05 00:12:21;;;;;;;41.53;12.02;;;;;;;;;;6228437;28;20069;-79
2022/03/05 00:15:24;;;;;;;49.08;12.25;;;;;;;;;;6215986;28;20514;-80
2022/03/05 00:18:25;;;;;;;42.97;11.13;;;;;;;;;;6215834;28;20046;-81
2022/03/05 00:21:27;;;;;;;44.08;12.80;;;;;;;;;;6233560;28;20049;-80
2022/03/05 00:24:29;;;;;;;44.20;12.55;;;;;;;;;;6240545;28;20069;-83
2022/03/05 00:27:30;;;;;;;46.10;12.23;;;;;;;;;;6229843;28;20091;-80
2022/03/05 00:30:32;;;;;;;39.92;12.10;;;;;;;;;;6215082;28;20172;-82
2022/03/05 00:33:34;;;;;;;49.10;13.43;;;;;;;;;;6218309;28;20050;-82
2022/03/05 00:36:37;;;;;;;41.63;12.40;;;;;;;;;;6216623;28;20128;-82
2022/03/05 00:39:39;;;;;;;45.60;13.23;;;;;;;;;;6218683;28;20069;-83
2022/03/05 00:42:41;;;;;;;41.90;12.63;;;;;;;;;;6221953;28;20034;-82
2022/03/05 00:45:43;;;;;;;41.88;11.93;;;;;;;;;;6218466;28;20159;-80
2022/03/05 00:48:45;;;;;;;44.75;12.70;;;;;;;;;;6217269;28;20104;-83
2022/03/05 00:51:46;;;;;;;45.28;12.90;;;;;;;;;;6231809;28;20045;-83
2022/03/05 00:54:48;;;;;;;36.53;10.88;;;;;;;;;;6217659;28;20133;-81
2022/03/05 00:57:50;;;;;;;37.17;11.88;;;;;;;;;;6217932;28;20503;-80
2022/03/05 01:00:52;;;;;;;41.67;13.20;;;;;;;;;;6240795;28;20056;-78
2022/03/05 01:03:55;;;;;;;47.38;12.90;;;;;;;;;;6221383;28;20069;-81
2022/03/05 01:06:56;;;;;;;50.35;13.73;;;;;;;;;;6204346;28;20081;-81
2022/03/05 01:09:58;;;;;;;46.15;14.25;;;;;;;;;;6216341;28;20042;-81
2022/03/05 01:13:00;;;;;;;43.50;13.80;;;;;;;;;;6248757;28;20051;-82
2022/03/05 01:16:02;;;;;;;37.35;11.55;;;;;;;;;;6218305;28;20198;-81
2022/03/05 01:19:04;;;;;;;45.13;12.07;;;;;;;;;;6215188;28;20068;-82
2022/03/05 01:22:06;;;;;;;44.42;11.65;;;;;;;;;;6249474;28;20464;-82
2022/03/05 01:25:08;;;;;;;39.58;11.93;;;;;;;;;;6218043;28;20041;-82
2022/03/05 01:28:10;;;;;;;50.33;12.93;;;;;;;;;;6216130;28;20131;-81
2022/03/05 01:31:11;;;;;;;40.50;11.98;;;;;;;;;;6214346;28;20105;-82
2022/03/05 01:34:13;;;;;;;42.28;12.07;;;;;;;;;;6215304;28;20411;-83
2022/03/05 01:37:15;;;;;;;38.53;11.95;;;;;;;;;;6217711;28;20108;-82
2022/03/05 01:40:17;;;;;;;40.60;11.35;;;;;;;;;;6215924;28;20449;-82
2022/03/05 01:43:19;;;;;;;43.03;11.50;;;;;;;;;;6209938;28;20144;-82
2022/03/05 01:46:36;;;;;;;33.22;10.68;;;;;;;;;;6222972;28;20128;-82
2022/03/05 01:49:37;;;;;;;44.35;11.65;;;;;;;;;;6224047;28;20050;-82
2022/03/05 01:52:39;;;;;;;35.60;11.57;;;;;;;;;;6225415;28;20121;-83
2022/03/05 01:55:42;;;;;;;36.65;10.85;;;;;;;;;;6217109;28;20519;-83
2022/03/05 01:58:43;;;;;;;36.03;10.95;;;;;;;;;;6219585;28;20132;-82
2022/03/05 02:01:45;;;;;;;31.52;9.82;;;;;;;;;;6219784;28;20795;-83
2022/03/05 02:04:47;;;;;;;42.50;11.23;;;;;;;;;;6220305;28;20054;-82
2022/03/05 02:07:49;;;;;;;43.13;11.57;;;;;;;;;;6208207;28;20220;-83
2022/03/05 02:10:51;;;;;;;48.55;11.25;;;;;;;;;;6193278;28;20903;-81
2022/03/05 02:13:53;;;;;;;37.50;11.50;;;;;;;;;;6217953;28;20143;-81
2022/03/05 02:16:55;;;;;;;39.65;11.35;;;;;;;;;;6242328;28;20054;-83
2022/03/05 02:19:58;;;;;;;36.25;10.15;;;;;;;;;;6236600;28;20624;-82
2022/03/05 02:23:00;;;;;;;35.67;10.98;;;;;;;;;;6232969;28;20061;-82
2022/03/05 02:26:03;;;;;;;42.45;10.95;;;;;;;;;;6216276;28;20069;-80
2022/03/05 02:29:04;;;;;;;44.83;12.88;;;;;;;;;;6218929;28;20157;-83
2022/03/05 02:32:06;;;;;;;34.15;11.50;;;;;;;;;;6218867;28;20565;-82
2022/03/05 02:35:09;;;;;;;35.53;10.48;;;;;;;;;;6219636;28;20045;-83
2022/03/05 02:38:17;;;;;;;34.37;10.80;;;;;;;;;;6233754;28;20495;-82
2022/03/05 02:41:18;;;;;;;37.78;12.52;;;;;;;;;;6239877;28;20057;-82
2022/03/05 02:44:23;;;;;;;41.55;10.07;;;;;;;;;;6240084;28;20099;-80
2022/03/05 02:47:24;;;;;;;40.22;10.13;;;;;;;;;;6241792;28;20073;-81
2022/03/05 02:50:26;;;;;;;37.03;11.55;;;;;;;;;;6223926;28;20121;-80
2022/03/05 02:53:29;;;;;;;36.85;10.00;;;;;;;;;;6214663;28;20164;-81
2022/03/05 02:56:31;;;;;;;37.85;10.43;;;;;;;;;;6215097;28;20148;-79
2022/03/05 02:59:33;;;;;;;42.15;11.15;;;;;;;;;;6218008;28;20510;-82
2022/03/05 03:02:34;;;;;;;38.22;10.80;;;;;;;;;;6241795;28;20075;-82
2022/03/05 03:05:36;;;;;;;37.85;10.60;;;;;;;;;;6216958;28;20042;-83
2022/03/05 03:08:38;;;;;;;32.47;9.32;;;;;;;;;;6218972;28;20042;-81
2022/03/05 03:11:40;;;;;;;39.17;11.45;;;;;;;;;;6221983;28;20057;-81
2022/03/05 03:14:41;;;;;;;33.42;9.50;;;;;;;;;;6201942;28;20426;-82
2022/03/05 03:17:49;;;;;;;36.45;10.35;;;;;;;;;;6221457;28;20073;-81
2022/03/05 03:20:50;;;;;;;39.83;9.73;;;;;;;;;;6222193;28;20683;-82
2022/03/05 03:23:52;;;;;;;32.53;10.23;;;;;;;;;;6253133;28;20200;-80
2022/03/05 03:26:54;;;;;;;35.67;10.20;;;;;;;;;;6220683;28;20223;-82
2022/03/05 03:29:55;;;;;;;36.55;11.07;;;;;;;;;;6222227;28;20145;-80
2022/03/05 03:32:57;;;;;;;42.55;11.63;;;;;;;;;;6223290;28;20706;-81
2022/03/05 03:35:59;;;;;;;41.88;12.10;;;;;;;;;;6221991;28;20046;-81
2022/03/05 03:39:01;;;;;;;44.00;11.88;;;;;;;;;;6223878;28;20046;-81
2022/03/05 03:42:03;;;;;;;43.97;11.50;;;;;;;;;;6217997;28;20058;-83
2022/03/05 03:45:05;;;;;;;40.08;11.45;;;;;;;;;;6221665;28;20586;-83
2022/03/05 03:48:07;;;;;;;41.73;12.40;;;;;;;;;;6222239;28;20056;-84
2022/03/05 03:51:09;;;;;;;41.65;11.50;;;;;;;;;;6224085;28;20276;-80
2022/03/05 03:54:10;;;;;;;43.05;12.43;;;;;;;;;;6245232;28;20084;-81
2022/03/05 03:57:12;;;;;;;36.58;10.70;;;;;;;;;;6235457;28;20186;-82
2022/03/05 04:00:17;;;;;;;44.08;11.95;;;;;;;;;;6221950;28;20125;-80
2022/03/05 04:03:18;;;;;;;33.28;9.95;;;;;;;;;;6219537;28;20091;-82
2022/03/05 04:06:20;;;;;;;36.67;10.82;;;;;;;;;;6222513;28;20053;-83
2022/03/05 04:09:22;;;;;;;38.75;9.85;;;;;;;;;;6220940;28;20661;-82
2022/03/05 04:12:24;;;;;;;32.60;9.13;;;;;;;;;;6220563;28;20092;-81
2022/03/05 04:15:26;;;;;;;31.38;9.75;;;;;;;;;;6221534;28;20128;-80
2022/03/05 04:18:27;;;;;;;38.47;11.05;;;;;;;;;;6222182;28;20049;-82
2022/03/05 04:21:29;;;;;;;43.08;11.63;;;;;;;;;;6221730;28;20053;-83
2022/03/05 04:24:31;;;;;;;41.03;11.55;;;;;;;;;;6221653;28;20046;-83
2022/03/05 04:27:33;;;;;;;34.45;10.82;;;;;;;;;;6220475;28;20125;-80
2022/03/05 04:30:35;;;;;;;31.67;9.88;;;;;;;;;;6218924;28;20042;-81
2022/03/05 04:33:37;;;;;;;31.63;10.15;;;;;;;;;;6217383;28;20045;-82
2022/03/05 04:36:39;;;;;;;45.67;11.43;;;;;;;;;;6219531;28;20828;-81
2022/03/05 04:39:40;;;;;;;48.97;11.43;;;;;;;;;;6216984;28;20041;-82
2022/03/05 04:42:42;;;;;;;31.85;9.07;;;;;;;;;;6216053;28;20056;-83
2022/03/05 04:45:44;;;;;;;39.38;9.45;;;;;;;;;;6217793;28;20196;-82
2022/03/05 04:48:45;;;;;;;38.88;10.40;;;;;;;;;;6244617;28;20120;-82
2022/03/05 04:51:47;;;;;;;34.90;9.65;;;;;;;;;;6233340;28;20101;-84
2022/03/05 04:54:48;;;;;;;41.60;9.52;;;;;;;;;;6219240;28;20065;-82
2022/03/05 04:57:50;;;;;;;38.47;10.60;;;;;;;;;;6219745;28;20065;-82
2022/03/05 05:00:52;;;;;;;34.40;10.32;;;;;;;;;;6219493;28;20176;-81
2022/03/05 05:03:54;;;;;;;38.13;10.63;;;;;;;;;;6220765;28;20407;-82
2022/03/05 05:06:56;;;;;;;35.63;9.77;;;;;;;;;;6221111;28;20053;-82
2022/03/05 05:09:57;;;;;;;36.60;10.43;;;;;;;;;;6221384;28;20463;-81
2022/03/05 05:12:59;;;;;;;37.15;9.77;;;;;;;;;;6218791;28;20124;-82
2022/03/05 05:16:01;;;;;;;31.52;10.10;;;;;;;;;;6219199;28;20104;-82
2022/03/05 05:22:23;;;;;;;35.25;10.20;;;;;;;;;;6251512;28;20506;-81
2022/03/05 05:25:24;;;;;;;34.72;9.13;;;;;;;;;;6218352;28;20108;-82
2022/03/05 05:28:26;;;;;;;37.35;10.55;;;;;;;;;;6211458;28;20107;-81
2022/03/05 05:31:27;;;;;;;34.72;10.15;;;;;;;;;;6215214;28;20044;-82
2022/03/05 05:34:29;;;;;;;39.22;10.15;;;;;;;;;;6214677;28;20127;-84
2022/03/05 05:37:32;;;;;;;41.33;10.60;;;;;;;;;;6219709;28;20543;-80
2022/03/05 05:40:34;;;;;;;41.10;11.10;;;;;;;;;;6258079;28;20045;-84
2022/03/05 05:43:36;;;;;;;33.58;10.18;;;;;;;;;;6230325;28;20422;-83
2022/03/05 05:46:38;;;;;;;36.13;10.93;;;;;;;;;;6244009;28;20118;-82
2022/03/05 05:49:40;;;;;;;33.45;10.95;;;;;;;;;;6236315;28;20045;-84
2022/03/05 05:52:42;;;;;;;38.03;10.80;;;;;;;;;;6221539;28;20414;-83
2022/03/05 05:55:44;;;;;;;35.85;9.30;;;;;;;;;;6245417;28;20152;-81
2022/03/05 05:58:49;;;;;;;34.38;9.65;;;;;;;;;;6242871;28;20079;-82
2022/03/05 06:01:51;;;;;;;45.78;10.80;;;;;;;;;;6244744;28;20077;-82
2022/03/05 06:04:53;;;;;;;31.48;9.13;;;;;;;;;;6231015;28;20057;-83
2022/03/05 06:07:56;;;;;;;44.90;11.98;;;;;;;;;;6221246;28;20188;-79
2022/03/05 06:10:57;;;;;;;32.15;9.25;;;;;;;;;;6228705;28;20057;-83
2022/03/05 06:13:59;;;;;;;35.92;8.95;;;;;;;;;;6227917;28;20461;-78
2022/03/05 06:17:01;;;;;;;32.95;10.48;;;;;;;;;;6220659;28;20200;-81
2022/03/05 06:20:03;;;;;;;33.15;10.68;;;;;;;;;;6222170;28;20495;-80
2022/03/05 06:23:04;;;;;;;38.85;10.82;;;;;;;;;;6240154;28;20124;-83
2022/03/05 06:26:06;;;;;;;34.70;9.95;;;;;;;;;;6239819;28;20535;-83
2022/03/05 06:29:08;;;;;;;38.45;10.40;;;;;;;;;;6226875;28;20409;-82
2022/03/05 06:32:09;;;;;;;40.45;11.68;;;;;;;;;;6205996;28;20184;-81
2022/03/05 06:35:11;;;;;;;41.72;11.32;;;;;;;;;;6221600;28;20527;-81
2022/03/05 06:38:13;;;;;;;35.80;11.07;;;;;;;;;;6221234;28;20129;-82
2022/03/05 06:41:14;;;;;;;33.85;11.15;;;;;;;;;;6242513;28;20049;-80
2022/03/05 06:44:16;;;;;;;31.95;10.60;;;;;;;;;;6254985;28;20046;-80
2022/03/05 06:47:18;;;;;;;38.30;11.82;;;;;;;;;;6222999;28;20341;-82
2022/03/05 06:50:20;;;;;;;42.17;11.50;;;;;;;;;;6242491;28;20109;-82
2022/03/05 06:53:22;;;;;;;45.70;14.68;;;;;;;;;;6220836;28;20058;-82
2022/03/05 06:56:23;;;;;;;41.22;13.07;;;;;;;;;;6223336;28;20046;-81
2022/03/05 06:59:25;;;;;;;49.33;13.50;;;;;;;;;;6222874;28;20515;-82
2022/03/05 07:02:27;;;;;;;47.17;13.60;;;;;;;;;;6241054;28;20048;-80
2022/03/05 07:05:29;;;;;;;38.47;11.23;;;;;;;;;;6227723;28;20050;-83
2022/03/05 07:08:30;;;;;;;40.40;11.57;;;;;;;;;;6236188;28;20180;-80
2022/03/05 07:11:32;;;;;;;38.25;12.63;;;;;;;;;;6226245;28;20066;-81
2022/03/05 07:14:34;;;;;;;43.03;12.95;;;;;;;;;;6251049;28;20458;-80
2022/03/05 07:17:36;;;;;;;31.63;11.38;;;;;;;;;;6239578;28;20034;-80
2022/03/05 07:20:37;;;;;;;42.13;11.95;;;;;;;;;;6237340;28;20128;-80
2022/03/05 07:23:39;;;;;;;40.95;12.48;;;;;;;;;;6238267;28;20057;-82
2022/03/05 07:26:41;;;;;;;38.42;13.23;;;;;;;;;;6239786;28;20180;-81
2022/03/05 07:29:43;;;;;;;45.08;16.30;;;;;;;;;;6241716;28;20120;-80
2022/03/05 07:32:46;;;;;;;39.30;15.43;;;;;;;;;;6239955;28;20069;-82
2022/03/05 07:35:48;;;;;;;41.22;13.57;;;;;;;;;;6234414;28;21371;-78
2022/03/05 07:38:51;;;;;;;39.42;13.25;;;;;;;;;;6240921;28;20068;-80
2022/03/05 07:41:52;;;;;;;42.50;14.57;;;;;;;;;;6234322;28;20638;-82
2022/03/05 07:44:54;;;;;;;45.40;14.15;;;;;;;;;;6232184;28;20101;-79
2022/03/05 07:47:56;;;;;;;37.15;11.93;;;;;;;;;;6232843;28;20061;-81
2022/03/05 07:51:02;;;;;;;40.20;14.05;;;;;;;;;;6230407;28;20144;-81
2022/03/05 07:54:04;;;;;;;40.63;13.27;;;;;;;;;;6242641;28;20045;-82
2022/03/05 07:57:05;;;;;;;44.20;15.20;;;;;;;;;;6239786;28;20142;-81
2022/03/05 08:00:08;;;;;;;42.97;14.90;;;;;;;;;;6224881;28;20041;-80
2022/03/05 08:03:24;;;;;;;41.95;13.95;;;;;;;;;;6246444;28;20125;-80
2022/03/05 08:06:26;;;;;;;46.10;15.02;;;;;;;;;;6220220;28;20080;-81
2022/03/05 08:09:29;;;;;;;37.63;14.50;;;;;;;;;;6221134;28;20046;-81
2022/03/05 08:12:32;;;;;;;39.67;13.27;;;;;;;;;;6239878;28;20052;-80
2022/03/05 08:15:36;;;;;;;44.67;14.27;;;;;;;;;;6265924;28;20049;-80
2022/03/05 08:18:40;;;;;;;42.35;12.52;;;;;;;;;;6243579;28;20064;-80
2022/03/05 08:21:44;;;;;;;39.65;11.75;;;;;;;;;;6241750;28;20477;-80
2022/03/05 08:24:46;;;;;;;36.75;12.45;;;;;;;;;;6243106;28;20443;-80
2022/03/05 08:27:48;;;;;;;41.97;12.85;;;;;;;;;;6219475;28;20045;-80
2022/03/05 08:30:50;;;;;;;38.70;12.88;;;;;;;;;;6235714;28;20192;-80
2022/03/05 08:33:51;;;;;;;37.60;12.88;;;;;;;;;;6241340;28;20053;-81
2022/03/05 08:36:53;;;;;;;36.80;12.13;;;;;;;;;;6218854;28;20944;-79
2022/03/05 08:39:55;;;;;;;36.58;11.57;;;;;;;;;;6242949;28;20076;-81
2022/03/05 08:42:56;;;;;;;35.53;11.77;;;;;;;;;;6221201;28;20056;-79
2022/03/05 08:46:04;;;;;;;46.47;15.23;;;;;;;;;;6217637;28;20426;-79
2022/03/05 08:49:05;;;;;;;52.45;18.50;;;;;;;;;;6177630;28;23949;-81
2022/03/05 08:52:08;;;;;;;34.97;13.18;;;;;;;;;;6211203;28;20513;-79
2022/03/05 08:55:13;;;;;;;32.07;12.27;;;;;;;;;;6211504;28;20040;-78
2022/03/05 08:58:14;;;;;;;34.88;12.23;;;;;;;;;;6226222;28;20120;-79
2022/03/05 09:01:16;;;;;;;34.42;12.63;;;;;;;;;;6235369;28;20092;-79
2022/03/05 09:04:18;;;;;;;41.53;16.83;;;;;;;;;;6242520;28;20723;-79
2022/03/05 09:07:20;;;;;;;38.50;14.48;;;;;;;;;;6232973;28;20069;-78
2022/03/05 09:10:22;;;;;;;36.20;13.00;;;;;;;;;;6240265;28;20088;-79
2022/03/05 09:13:23;;;;;;;33.85;16.00;;;;;;;;;;6220231;28;20046;-79
2022/03/05 09:16:25;;;;;;;36.53;13.13;;;;;;;;;;6243386;28;20045;-79
2022/03/05 09:19:27;;;;;;;30.52;12.20;;;;;;;;;;6217002;28;20042;-79
2022/03/05 09:22:29;;;;;;;28.70;11.07;;;;;;;;;;6222272;28;20048;-80
2022/03/05 09:25:30;;;;;;;30.70;11.55;;;;;;;;;;6227400;28;20142;-80
2022/03/05 09:28:32;;;;;;;30.42;11.02;;;;;;;;;;6223089;28;20038;-79
2022/03/05 09:31:34;;;;;;;28.73;11.48;;;;;;;;;;6235720;28;20120;-81
2022/03/05 09:34:36;;;;;;;27.90;12.30;;;;;;;;;;6245454;28;20037;-77
2022/03/05 09:37:38;;;;;;;28.45;11.40;;;;;;;;;;6236636;28;20037;-80
2022/03/05 09:40:44;;;;;;;28.85;11.35;;;;;;;;;;6231870;28;20033;-80
2022/03/05 09:43:46;;;;;;;29.27;11.45;;;;;;;;;;6223796;28;20109;-81
2022/03/05 09:46:48;;;;;;;31.20;12.68;;;;;;;;;;6242345;28;20231;-80
2022/03/05 09:49:50;;;;;;;29.45;12.10;;;;;;;;;;6225238;28;20236;-79
2022/03/05 09:52:53;;;;;;;29.00;11.95;;;;;;;;;;6217666;28;20153;-80
2022/03/05 09:55:55;;;;;;;25.67;10.80;;;;;;;;;;6215198;28;20048;-80
2022/03/05 09:59:17;;;;;;;25.58;11.98;;;;;;;;;;6228452;28;20050;-79
2022/03/05 10:02:19;;;;;;;26.48;11.30;;;;;;;;;;6238973;28;20179;-83
2022/03/05 10:05:27;;;;;;;29.33;11.32;;;;;;;;;;6225909;28;20054;-82
2022/03/05 10:08:28;;;;;;;25.30;11.95;;;;;;;;;;6213235;28;20065;-80
2022/03/05 10:11:40;;;;;;;28.35;11.88;;;;;;;;;;6236224;28;20065;-81
2022/03/05 10:14:41;;;;;;;24.65;11.57;;;;;;;;;;6217213;28;20049;-82
2022/03/05 10:17:50;;;;;;;26.27;10.70;;;;;;;;;;6216379;28;20100;-79
2022/03/05 10:20:52;;;;;;;26.10;11.07;;;;;;;;;;6215926;28;20042;-82
2022/03/05 10:24:06;;;;;;;25.38;11.25;;;;;;;;;;6221590;28;20152;-83
2022/03/05 10:27:30;;;;;;;24.58;10.15;;;;;;;;;;6233216;28;20055;-82
2022/03/05 10:30:34;;;;;;;21.85;10.23;;;;;;;;;;6221518;28;20101;-82
2022/03/05 10:33:43;;;;;;;23.33;10.85;;;;;;;;;;6221814;28;20177;-81
2022/03/05 10:36:57;;;;;;;25.02;11.13;;;;;;;;;;6239160;28;20055;-82
2022/03/05 10:39:58;;;;;;;23.35;10.80;;;;;;;;;;6247662;28;20136;-81
2022/03/05 10:43:03;;;;;;;25.50;10.93;;;;;;;;;;6237602;28;20116;-83
2022/03/05 10:46:05;;;;;;;28.23;10.85;;;;;;;;;;6222519;28;20099;-81
2022/03/05 10:49:14;;;;;;;23.23;10.50;;;;;;;;;;6254108;28;20510;-82
2022/03/05 10:52:16;;;;;;;22.42;10.20;;;;;;;;;;6220252;28;20049;-83
2022/03/05 10:55:21;;;;;;;26.20;10.53;;;;;;;;;;6220997;28;20088;-81
2022/03/05 10:58:23;;;;;;;22.02;11.18;;;;;;;;;;6222064;28;20183;-82
2022/03/05 11:01:25;;;;;;;22.92;9.90;;;;;;;;;;6241752;28;20125;-82
2022/03/05 11:04:29;;;;;;;24.27;11.10;;;;;;;;;;6242021;28;20478;-81
2022/03/05 11:07:31;;;;;;;24.70;9.93;;;;;;;;;;6227827;28;20076;-81
2022/03/05 11:10:33;;;;;;;24.38;10.55;;;;;;;;;;6244218;28;20139;-81
2022/03/05 11:13:34;;;;;;;19.17;9.50;;;;;;;;;;6241989;28;20045;-82
2022/03/05 11:16:36;;;;;;;24.45;9.65;;;;;;;;;;6219760;28;20045;-80
2022/03/05 11:19:38;;;;;;;18.52;9.35;;;;;;;;;;6216646;28;20115;-81
2022/03/05 11:22:49;;;;;;;18.83;9.57;;;;;;;;;;6246830;28;20052;-81
2022/03/05 11:25:51;;;;;;;20.08;8.80;;;;;;;;;;6244669;28;20049;-80
2022/03/05 11:28:52;;;;;;;20.67;9.57;;;;;;;;;;6241604;28;20045;-83
2022/03/05 11:32:14;;;;;;;19.67;8.57;;;;;;;;;;6243682;28;20199;-81
2022/03/05 11:35:23;;;;;;;13.02;5.55;;;;;;;;;;6237784;28;20053;-81
2022/03/05 11:38:36;;;;;;;13.57;6.03;;;;;;;;;;6221284;28;20771;-82
2022/03/05 11:42:01;;;;;;;10.52;5.57;;;;;;;;;;6218551;28;20039;-82
2022/03/05 11:45:27;;;;;;;11.30;5.57;;;;;;;;;;6219793;28;20053;-82
2022/03/05 11:48:31;;;;;;;11.52;5.95;;;;;;;;;;6229226;28;20113;-81
2022/03/05 11:51:49;;;;;;;10.80;5.43;;;;;;;;;;6207202;28;20074;-82
2022/03/05 11:55:13;;;;;;;11.10;5.63;;;;;;;;;;6194572;28;20080;-83
2022/03/05 11:58:18;;;;;;;9.65;4.70;;;;;;;;;;6222424;28;20041;-84
2022/03/05 12:01:33;;;;;;;12.75;5.00;;;;;;;;;;6244751;28;20128;-82
2022/03/05 12:04:46;;;;;;;10.80;5.15;;;;;;;;;;6224355;28;20045;-82
2022/03/05 12:07:48;;;;;;;11.10;5.90;;;;;;;;;;6272548;28;20061;-81
2022/03/05 12:11:15;;;;;;;11.63;5.65;;;;;;;;;;6229413;28;20168;-81
2022/03/05 12:14:17;;;;;;;12.05;6.10;;;;;;;;;;6258090;28;20041;-83
2022/03/05 12:17:30;;;;;;;11.98;5.97;;;;;;;;;;6260541;28;20593;-83
2022/03/05 12:20:36;;;;;;;11.05;5.55;;;;;;;;;;6219887;28;20133;-82
2022/03/05 12:23:38;;;;;;;11.35;5.38;;;;;;;;;;6220402;28;20045;-80
2022/03/05 12:26:50;;;;;;;9.68;5.35;;;;;;;;;;6217519;28;20132;-82
2022/03/05 12:29:53;;;;;;;10.05;5.68;;;;;;;;;;6218784;28;20141;-81
2022/03/05 12:32:59;;;;;;;11.98;5.82;;;;;;;;;;6217170;28;20053;-82
2022/03/05 12:36:01;;;;;;;15.80;5.85;;;;;;;;;;6225051;28;20052;-82
2022/03/05 12:39:03;;;;;;;13.35;6.25;;;;;;;;;;6217187;28;20128;-82
2022/03/05 12:42:05;;;;;;;14.88;6.00;;;;;;;;;;6235570;28;20129;-84
2022/03/05 12:45:07;;;;;;;15.15;5.82;;;;;;;;;;6225970;28;20130;-81
2022/03/05 12:48:15;;;;;;;12.57;6.22;;;;;;;;;;6220672;28;20173;-81
2022/03/05 12:51:20;;;;;;;14.18;6.13;;;;;;;;;;6219971;28;20061;-80
2022/03/05 12:54:22;;;;;;;12.07;6.15;;;;;;;;;;6226422;28;20454;-80
2022/03/05 12:57:25;;;;;;;12.98;5.93;;;;;;;;;;6242243;28;20436;-81
2022/03/05 13:00:26;;;;;;;13.68;6.88;;;;;;;;;;6240082;28;20041;-80
2022/03/05 13:03:31;;;;;;;13.30;6.47;;;;;;;;;;6241422;28;20045;-81
2022/03/05 13:06:33;;;;;;;10.90;6.07;;;;;;;;;;6239352;28;20041;-81
2022/03/05 13:09:34;;;;;;;9.80;5.95;;;;;;;;;;6213481;28;20141;-81
2022/03/05 13:12:40;;;;;;;11.00;6.65;;;;;;;;;;6215458;28;20062;-81
2022/03/05 13:15:42;;;;;;;10.35;5.75;;;;;;;;;;6213855;28;20048;-83
2022/03/05 13:18:57;;;;;;;13.77;6.67;;;;;;;;;;6232491;28;20042;-82
2022/03/05 13:21:58;;;;;;;16.55;6.40;;;;;;;;;;6237859;28;20498;-82
2022/03/05 13:25:00;;;;;;;14.85;6.57;;;;;;;;;;6236752;28;20096;-81
2022/03/05 13:28:02;;;;;;;10.23;5.25;;;;;;;;;;6222474;28;20153;-81
2022/03/05 13:31:05;;;;;;;11.95;6.82;;;;;;;;;;6237340;28;20076;-80
2022/03/05 13:34:07;;;;;;;;;;;;;;;;;;6220368;28;20446;-82
2022/03/05 13:37:09;;;;;;;16.25;7.55;;;;;;;;;;6214475;28;19981;-82
2022/03/05 13:40:13;;;;;;;26.30;11.80;;;;;;;;;;6238645;28;20042;-81
2022/03/05 13:43:20;;;;;;;17.80;8.80;;;;;;;;;;6219594;28;20067;-83
2022/03/05 13:46:25;;;;;;;29.00;10.73;;;;;;;;;;6221986;28;20057;-80
2022/03/05 13:49:28;;;;;;;17.45;7.65;;;;;;;;;;6227766;28;20053;-82
2022/03/05 13:52:33;;;;;;;14.93;8.10;;;;;;;;;;6220706;28;20149;-83
2022/03/05 13:55:34;;;;;;;10.93;5.95;;;;;;;;;;6212536;28;20050;-81
2022/03/05 13:58:38;;;;;;;12.13;6.28;;;;;;;;;;6232898;28;20049;-81
2022/03/05 14:01:42;;;;;;;11.43;5.90;;;;;;;;;;6243263;28;20053;-82
2022/03/05 14:05:00;;;;;;;10.27;5.70;;;;;;;;;;6239982;28;20084;-81
2022/03/05 14:08:03;;;;;;;11.70;6.95;;;;;;;;;;6241341;28;20041;-81
2022/03/05 14:11:05;;;;;;;11.98;7.43;;;;;;;;;;6241045;28;20041;-81
2022/03/05 14:14:07;;;;;;;9.20;5.50;;;;;;;;;;6241641;28;20654;-81
2022/03/05 14:17:09;;;;;;;13.57;6.15;;;;;;;;;;6223236;28;20652;-82
2022/03/05 14:20:21;;;;;;;10.32;5.40;;;;;;;;;;6223145;28;20053;-80
2022/03/05 14:23:23;;;;;;;10.98;5.75;;;;;;;;;;6242906;28;20845;-81
2022/03/05 14:26:33;;;;;;;9.18;5.60;;;;;;;;;;6235296;28;20105;-81
2022/03/05 14:29:34;;;;;;;10.50;5.80;;;;;;;;;;6221192;28;20054;-80
2022/03/05 14:32:36;;;;;;;13.00;6.28;;;;;;;;;;6240107;28;20124;-81
2022/03/05 14:35:38;;;;;;;10.40;5.32;;;;;;;;;;6243570;28;20045;-81
2022/03/05 14:38:39;;;;;;;8.05;4.82;;;;;;;;;;6243006;28;20050;-81
2022/03/05 14:41:41;;;;;;;10.52;5.90;;;;;;;;;;6244899;28;20095;-81
2022/03/05 14:44:43;;;;;;;9.05;5.20;;;;;;;;;;6244991;28;20132;-81
2022/03/05 14:47:45;;;;;;;12.90;5.78;;;;;;;;;;6237093;28;20081;-81
2022/03/05 14:50:47;;;;;;;10.20;5.73;;;;;;;;;;6244684;28;20756;-82
2022/03/05 14:53:49;;;;;;;10.60;5.88;;;;;;;;;;6247134;28;20046;-82
2022/03/05 14:56:51;;;;;;;10.88;5.63;;;;;;;;;;6242316;28;20352;-81
2022/03/05 14:59:53;;;;;;;9.63;5.28;;;;;;;;;;6243787;28;20037;-81
2022/03/05 15:02:55;;;;;;;10.23;6.15;;;;;;;;;;6233628;28;20042;-80
2022/03/05 15:05:57;;;;;;;11.35;5.88;;;;;;;;;;6243470;28;20545;-81
2022/03/05 15:08:59;;;;;;;12.40;6.35;;;;;;;;;;6243499;28;20050;-79
2022/03/05 15:12:01;;;;;;;10.82;6.15;;;;;;;;;;6238584;28;20146;-79
2022/03/05 15:15:04;;;;;;;10.57;5.88;;;;;;;;;;6245568;28;20111;-79
2022/03/05 15:18:06;;;;;;;;;;;;;;;;;;6245964;28;20076;-81
2022/03/05 15:21:07;;;;;;;10.60;5.55;;;;;;;;;;6224535;28;19921;-80
2022/03/05 15:24:10;;;;;;;11.70;5.82;;;;;;;;;;6223172;28;20109;-80
2022/03/05 15:27:12;;;;;;;11.43;6.05;;;;;;;;;;6221192;28;20054;-80
2022/03/05 15:30:13;;;;;;;10.88;6.18;;;;;;;;;;6223299;28;20061;-78
2022/03/05 15:33:15;;;;;;;11.07;6.55;;;;;;;;;;6219149;28;20123;-80
2022/03/05 15:36:17;;;;;;;12.00;6.75;;;;;;;;;;6232890;28;20510;-78
2022/03/05 15:39:19;;;;;;;12.07;5.85;;;;;;;;;;6245912;28;20067;-80
2022/03/05 15:42:21;;;;;;;9.15;4.78;;;;;;;;;;6243734;28;20487;-81
2022/03/05 15:45:23;;;;;;;12.10;6.10;;;;;;;;;;6243174;28;20096;-79
2022/03/05 15:48:25;;;;;;;14.27;7.35;;;;;;;;;;6243280;28;20069;-79
2022/03/05 15:51:27;;;;;;;17.20;7.53;;;;;;;;;;6243258;28;20072;-80
2022/03/05 15:54:28;;;;;;;11.25;6.10;;;;;;;;;;6245127;28;20128;-81
2022/03/05 15:57:30;;;;;;;13.13;7.20;;;;;;;;;;6244949;28;20410;-81
2022/03/05 16:00:32;;;;;;;12.10;6.47;;;;;;;;;;6244838;28;20065;-79
2022/03/05 16:03:37;;;;;;;13.63;6.97;;;;;;;;;;6248144;28;20581;-78
2022/03/05 16:06:39;;;;;;;;;;;;;;;;;;6230832;28;20092;-80
2022/03/05 16:09:40;;;;;;;11.23;6.32;;;;;;;;;;6255600;28;19925;-81
2022/03/05 16:12:42;;;;;;;11.50;6.47;;;;;;;;;;6235350;28;20052;-79
2022/03/05 16:15:44;;;;;;;12.20;6.57;;;;;;;;;;6245929;28;20049;-80
2022/03/05 16:18:47;;;;;;;13.07;7.47;;;;;;;;;;6248395;28;20124;-80
2022/03/05 16:21:49;;;;;;;;;;;;;;;;;;6229030;28;20069;-79
2022/03/05 16:24:50;;;;;;;18.20;8.35;;;;;;;;;;6227798;28;20335;-81
2022/03/05 16:27:52;;;;;;;26.10;11.65;;;;;;;;;;6238795;28;20081;-81
2022/03/05 16:30:53;;;;;;;15.45;9.38;;;;;;;;;;6221165;28;20136;-79
2022/03/05 16:33:55;;;;;;;18.35;8.85;;;;;;;;;;6228575;28;20049;-78
2022/03/05 16:36:57;;;;;;;27.77;12.98;;;;;;;;;;6221438;28;20060;-81
2022/03/05 16:39:59;;;;;;;18.50;8.40;;;;;;;;;;6221427;28;20050;-79
2022/03/05 16:43:01;;;;;;;26.13;16.75;;;;;;;;;;6229680;28;20567;-80
2022/03/05 16:46:05;;;;;;;15.25;7.80;;;;;;;;;;6233450;28;20201;-80
2022/03/05 16:49:06;;;;;;;14.32;7.85;;;;;;;;;;6227922;28;20050;-79
2022/03/05 16:52:10;;;;;;;15.35;7.47;;;;;;;;;;6236870;28;20124;-81
2022/03/05 16:55:11;;;;;;;16.92;8.52;;;;;;;;;;6230581;28;20504;-79
2022/03/05 16:58:13;;;;;;;15.80;7.30;;;;;;;;;;6233509;28;20053;-79
2022/03/05 17:01:16;;;;;;;11.25;6.75;;;;;;;;;;6253817;28;20050;-80
2022/03/05 17:04:19;;;;;;;13.88;7.93;;;;;;;;;;6227306;28;20049;-81
2022/03/05 17:07:20;;;;;;;14.63;7.55;;;;;;;;;;6227889;28;20129;-79
2022/03/05 17:10:42;;;;;;;13.70;7.53;;;;;;;;;;6225427;28;25360;-77
2022/03/05 17:13:45;;;;;;;14.98;7.20;;;;;;;;;;6227213;28;20061;-78
2022/03/05 17:16:47;;;;;;;16.00;7.60;;;;;;;;;;6224156;28;20208;-80
2022/03/05 17:19:48;;;;;;;15.73;7.22;;;;;;;;;;6242763;28;20485;-77
2022/03/05 17:22:50;;;;;;;19.88;9.00;;;;;;;;;;6238517;28;20097;-78
2022/03/05 17:25:52;;;;;;;37.08;19.38;;;;;;;;;;6223072;28;20073;-80
2022/03/05 17:28:54;;;;;;;115.80;65.63;;;;;;;;;;6219173;28;20045;-79
2022/03/05 17:31:55;;;;;;;91.00;42.88;;;;;;;;;;6219286;28;20147;-79
2022/03/05 17:34:57;;;;;;;88.57;39.97;;;;;;;;;;6221186;28;20141;-79
2022/03/05 17:37:59;;;;;;;64.97;31.25;;;;;;;;;;6218374;28;20081;-80
2022/03/05 17:41:00;;;;;;;58.03;25.90;;;;;;;;;;6198838;28;20129;-79
2022/03/05 17:44:02;;;;;;;51.28;21.27;;;;;;;;;;6193866;28;20196;-80
2022/03/05 17:47:04;;;;;;;23.60;13.02;;;;;;;;;;6206337;28;20069;-81
2022/03/05 17:50:07;;;;;;;31.98;16.65;;;;;;;;;;6205556;28;20592;-77
2022/03/05 17:53:09;;;;;;;21.92;11.45;;;;;;;;;;6226774;28;20073;-78
2022/03/05 17:56:11;;;;;;;16.77;10.75;;;;;;;;;;6229527;28;20431;-77